Time;durP1;ratioP1;P1;durP2;ratioP2;P2;SDS_P1;SDS_P2;PMS_P1;PMS_P2;Temp;Humidity;BMP_temperature;BMP_pressure;BME280_temperature;BME280_humidity;BME280_pressure;Samples;Min_cycle;Max_cycle;Signal;HPM_P1;HPM_P2
2022/06/25 00:01:12;;;;;;;5.88;2.00;;;;;;;16.53;68.87;98849.47;5018644;28;20126;-44
2022/06/25 00:03:39;;;;;;;4.28;2.95;;;;;;;16.53;68.85;98843.38;5019404;28;20541;-46
2022/06/25 00:06:06;;;;;;;3.53;2.53;;;;;;;16.47;69.21;98843.66;5020880;28;20040;-44
2022/06/25 00:08:35;;;;;;;6.20;2.28;;;;;;;16.48;68.08;98845.38;5023475;28;20053;-43
2022/06/25 00:11:02;;;;;;;5.70;2.72;;;;;;;16.45;68.11;98849.81;5021286;28;20095;-48
2022/06/25 00:13:29;;;;;;;3.13;2.45;;;;;;;16.42;67.86;98847.31;5023358;28;20053;-42
2022/06/25 00:15:56;;;;;;;6.10;2.25;;;;;;;16.39;68.14;98849.25;5024404;28;20068;-43
2022/06/25 00:18:23;;;;;;;6.00;2.47;;;;;;;16.37;67.77;98859.75;5022601;28;20151;-44
2022/06/25 00:20:50;;;;;;;5.22;2.35;;;;;;;16.38;68.31;98851.00;5020240;28;20053;-44
2022/06/25 00:23:16;;;;;;;5.97;2.55;;;;;;;16.39;67.67;98857.94;5020662;28;20111;-45
2022/06/25 00:25:43;;;;;;;4.45;2.42;;;;;;;16.37;67.77;98849.31;5017578;28;20394;-44
2022/06/25 00:28:10;;;;;;;5.13;2.08;;;;;;;16.35;67.52;98850.31;5025153;28;20501;-45
2022/06/25 00:30:37;;;;;;;5.72;2.53;;;;;;;16.34;67.68;98854.66;5019845;28;20049;-48
2022/06/25 00:33:04;;;;;;;9.38;2.83;;;;;;;16.32;67.85;98852.13;5020195;28;20058;-45
2022/06/25 00:35:31;;;;;;;8.75;2.70;;;;;;;16.31;67.66;98865.25;5024212;28;20363;-44
2022/06/25 00:37:57;;;;;;;6.20;2.58;;;;;;;16.30;67.80;98860.97;5025087;28;20099;-43
2022/06/25 00:40:24;;;;;;;4.28;2.40;;;;;;;16.26;67.49;98856.78;5020862;28;20042;-46
2022/06/25 00:42:50;;;;;;;8.30;2.55;;;;;;;16.25;67.57;98858.53;5021500;28;20045;-47
2022/06/25 00:45:17;;;;;;;3.95;1.60;;;;;;;16.21;67.28;98864.00;5021244;28;21596;-44
2022/06/25 00:47:44;;;;;;;5.45;3.25;;;;;;;16.17;66.99;98871.97;5019437;28;20116;-44
2022/06/25 00:50:10;;;;;;;4.72;2.33;;;;;;;16.11;67.35;98864.41;5016576;28;20119;-46
2022/06/25 00:52:42;;;;;;;5.13;2.67;;;;;;;16.09;67.31;98866.25;5025004;28;20049;-44
2022/06/25 00:55:13;;;;;;;;;;;;;;;15.85;67.67;98879.44;5020002;28;20060;-44
2022/06/25 00:57:42;;;;;;;7.05;2.92;;;;;;;15.99;67.20;98876.25;5021932;28;19944;-43
2022/06/25 01:00:14;;;;;;;8.05;3.17;;;;;;;15.99;66.86;98875.41;5021827;28;20076;-48
2022/06/25 01:02:42;;;;;;;4.47;2.40;;;;;;;15.93;66.87;98882.56;5019987;28;20049;-44
2022/06/25 01:05:11;;;;;;;5.38;3.25;;;;;;;15.89;66.98;98881.00;5022301;28;20111;-42
2022/06/25 01:07:39;;;;;;;5.43;2.30;;;;;;;15.89;67.07;98883.63;5018829;28;20054;-46
2022/06/25 01:10:06;;;;;;;6.00;2.35;;;;;;;15.86;66.76;98891.56;5023995;28;20046;-43
2022/06/25 01:12:34;;;;;;;3.88;2.35;;;;;;;15.82;66.67;98890.00;5026002;28;20042;-50
2022/06/25 01:15:08;;;;;;;4.47;2.15;;;;;;;15.77;67.23;98895.41;5025305;28;20045;-46
2022/06/25 01:17:40;;;;;;;8.25;2.67;;;;;;;15.75;66.97;98893.78;5026759;28;20136;-44
2022/06/25 01:20:08;;;;;;;4.05;2.17;;;;;;;15.73;67.12;98895.59;5022054;28;20062;-45
2022/06/25 01:22:34;;;;;;;7.50;2.78;;;;;;;15.67;67.13;98900.19;5019617;28;20050;-46
2022/06/25 01:25:01;;;;;;;6.65;2.75;;;;;;;15.64;67.24;98892.47;5019027;28;20046;-43
2022/06/25 01:27:27;;;;;;;5.35;3.03;;;;;;;15.60;66.92;98897.91;5024245;28;20042;-43
2022/06/25 01:29:54;;;;;;;7.13;3.10;;;;;;;15.57;67.08;98904.09;5017367;28;20140;-45
2022/06/25 01:32:21;;;;;;;7.07;3.17;;;;;;;15.54;67.26;98906.84;5022553;28;20056;-45
2022/06/25 01:34:48;;;;;;;5.57;3.75;;;;;;;15.50;67.03;98911.31;5018910;28;20061;-46
2022/06/25 01:37:14;;;;;;;8.48;2.85;;;;;;;15.47;67.01;98905.41;5025310;28;20107;-47
2022/06/25 01:39:41;;;;;;;6.85;2.78;;;;;;;15.42;66.68;98909.06;5021507;28;20657;-47
2022/06/25 01:42:58;;;;;;;5.97;3.10;;;;;;;15.39;67.25;98918.75;5023011;28;20095;-43
2022/06/25 01:44:54;;;;;;;6.80;2.50;;;;;;;15.36;66.90;98919.72;5020463;28;20057;-44
2022/06/25 01:47:20;;;;;;;8.85;3.00;;;;;;;15.31;67.07;98926.91;5019967;28;20042;-46
2022/06/25 01:49:47;;;;;;;7.53;2.47;;;;;;;15.25;67.03;98919.31;5020335;28;20104;-46
2022/06/25 01:52:14;;;;;;;7.13;2.10;;;;;;;15.22;67.63;98932.47;5016654;28;20049;-48
2022/06/25 01:54:40;;;;;;;4.25;2.42;;;;;;;15.18;67.17;98925.69;5020685;28;20053;-43
2022/06/25 01:57:07;;;;;;;8.48;2.67;;;;;;;15.14;67.57;98941.44;5022488;28;20092;-44
2022/06/25 01:59:33;;;;;;;4.57;2.22;;;;;;;15.11;67.46;98941.59;5019208;28;20049;-43
2022/06/25 02:02:00;;;;;;;7.07;2.85;;;;;;;15.09;67.17;98943.41;5024542;28;20115;-47
2022/06/25 02:04:27;;;;;;;5.70;2.40;;;;;;;15.05;67.06;98939.22;5021680;28;20076;-47
2022/06/25 02:06:53;;;;;;;5.63;2.20;;;;;;;15.03;66.91;98938.44;5022752;28;20526;-43
2022/06/25 02:09:20;;;;;;;5.35;2.90;;;;;;;15.00;67.09;98943.75;5023205;28;20057;-47
2022/06/25 02:11:46;;;;;;;7.13;2.15;;;;;;;14.98;67.45;98948.19;5023436;28;20057;-46
2022/06/25 02:14:13;;;;;;;9.95;2.88;;;;;;;14.98;67.28;98948.19;5023360;28;20045;-45
2022/06/25 02:16:41;;;;;;;7.13;2.63;;;;;;;14.96;67.53;98948.22;5025585;28;20045;-42
2022/06/25 02:19:08;;;;;;;3.60;0.93;;;;;;;14.96;67.23;98944.78;5021874;28;20536;-48
2022/06/25 02:21:35;;;;;;;3.65;0.93;;;;;;;14.91;67.07;98942.34;5024082;28;20514;-45
2022/06/25 02:24:02;;;;;;;5.13;2.33;;;;;;;14.87;67.48;98954.69;5022957;28;20045;-44
2022/06/25 02:26:29;;;;;;;5.97;3.00;;;;;;;14.81;67.45;98952.28;5023365;28;20053;-44
2022/06/25 02:28:55;;;;;;;5.70;1.25;;;;;;;14.78;67.48;98949.78;5023270;28;20624;-46
2022/06/25 02:31:22;;;;;;;5.30;2.78;;;;;;;14.75;67.33;98955.94;5021852;28;20084;-43
2022/06/25 02:33:49;;;;;;;11.13;2.85;;;;;;;14.72;67.78;98960.41;5023737;28;20132;-45
2022/06/25 02:36:15;;;;;;;6.00;2.88;;;;;;;14.69;67.52;98960.53;5020951;28;20567;-44
2022/06/25 02:38:42;;;;;;;4.50;2.15;;;;;;;14.69;67.51;98960.53;5022193;28;20080;-45
2022/06/25 02:41:09;;;;;;;5.45;2.55;;;;;;;14.67;67.19;98963.19;5024186;28;20045;-41
2022/06/25 02:43:35;;;;;;;7.07;2.42;;;;;;;14.64;67.57;98968.53;5021507;28;20053;-48
2022/06/25 02:46:02;;;;;;;4.80;2.80;;;;;;;14.61;66.66;98969.50;5025564;28;20046;-46
2022/06/25 02:48:29;;;;;;;6.82;2.70;;;;;;;14.56;67.07;98971.41;5021627;28;20080;-45
2022/06/25 02:50:55;;;;;;;6.15;2.78;;;;;;;14.54;66.93;98973.22;5020076;28;20444;-43
2022/06/25 02:53:22;;;;;;;7.10;2.42;;;;;;;14.52;66.49;98982.84;5022405;28;20120;-46
2022/06/25 03:01:23;;;;;;;8.13;3.50;;;;;;;14.36;67.37;98986.00;5022215;28;20045;-43
2022/06/25 03:03:51;;;;;;;6.57;2.15;;;;;;;14.33;66.97;98987.88;5021306;28;20148;-49
2022/06/25 03:06:18;;;;;;;6.13;2.55;;;;;;;14.28;67.63;98998.44;5020195;28;20056;-42
2022/06/25 03:08:46;;;;;;;4.80;2.05;;;;;;;14.25;67.25;98993.31;5025248;28;20057;-44
2022/06/25 03:11:13;;;;;;;5.50;1.10;;;;;;;14.24;66.86;99002.06;5019359;28;20621;-42
2022/06/25 03:13:40;;;;;;;5.90;2.63;;;;;;;14.23;66.79;99001.22;5022688;28;20134;-42
2022/06/25 03:16:07;;;;;;;7.72;2.97;;;;;;;14.18;67.25;99008.31;5021440;28;20049;-45
2022/06/25 03:18:35;;;;;;;4.60;2.10;;;;;;;14.16;67.46;99019.69;5019325;28;20104;-47
2022/06/25 03:21:02;;;;;;;5.80;2.10;;;;;;;14.13;66.77;99020.66;5018112;28;20095;-43
2022/06/25 03:23:29;;;;;;;4.07;2.33;;;;;;;14.11;66.87;99019.84;5021130;28;20049;-43
2022/06/25 03:25:56;;;;;;;6.90;1.80;;;;;;;14.05;66.57;99018.31;5021542;28;20053;-45
2022/06/25 03:28:22;;;;;;;7.30;2.10;;;;;;;14.02;67.13;99018.44;5023936;28;20119;-43
2022/06/25 03:30:49;;;;;;;5.57;2.03;;;;;;;14.00;67.01;99017.63;5023537;28;20045;-46
2022/06/25 03:33:16;;;;;;;5.22;1.70;;;;;;;13.95;66.49;99012.56;5023768;28;20437;-45
2022/06/25 03:35:42;;;;;;;5.18;2.40;;;;;;;13.93;66.65;99018.72;5023667;28;20108;-43
2022/06/25 03:38:09;;;;;;;4.20;2.47;;;;;;;13.90;67.22;99024.03;5026285;28;20119;-41
2022/06/25 03:40:36;;;;;;;4.72;2.03;;;;;;;13.84;66.83;99020.72;5019991;28;20053;-41
2022/06/25 03:43:03;;;;;;;2.97;1.63;;;;;;;13.79;66.42;99012.22;5022238;28;20061;-41
2022/06/25 03:45:29;;;;;;;5.60;2.65;;;;;;;13.73;66.52;99015.88;5018897;28;20065;-42
2022/06/25 03:47:56;;;;;;;5.35;2.30;;;;;;;13.70;66.92;99017.72;5023044;28;20071;-43
2022/06/25 03:50:22;;;;;;;3.75;2.58;;;;;;;13.67;66.60;99018.66;5022230;28;20052;-42
2022/06/25 03:52:50;;;;;;;6.28;2.65;;;;;;;13.66;66.34;99022.19;5020892;28;20049;-45
2022/06/25 03:55:18;;;;;;;5.32;2.00;;;;;;;13.64;66.42;99025.75;5023262;28;20054;-45
2022/06/25 03:57:56;;;;;;;5.10;2.13;;;;;;;13.62;67.30;99033.59;5019914;28;20107;-44
2022/06/25 04:00:23;;;;;;;3.35;1.88;;;;;;;13.59;66.37;99031.94;5023602;28;20049;-41
2022/06/25 04:02:50;;;;;;;6.70;2.55;;;;;;;13.58;67.19;99029.38;5021374;28;20045;-42
2022/06/25 04:05:16;;;;;;;5.70;2.38;;;;;;;13.54;66.33;99026.00;5024397;28;20111;-45
2022/06/25 04:07:43;;;;;;;4.90;0.98;;;;;;;13.52;66.83;99030.44;5021457;28;20425;-46
2022/06/25 04:10:09;;;;;;;5.65;3.05;;;;;;;13.49;67.51;99031.38;5020486;28;20042;-42
2022/06/25 04:12:36;;;;;;;7.03;3.13;;;;;;;13.49;67.02;99030.50;5022184;28;20045;-46
2022/06/25 04:15:03;;;;;;;4.82;1.98;;;;;;;13.47;67.12;99038.34;5020299;28;20490;-44
2022/06/25 04:17:29;;;;;;;5.68;2.20;;;;;;;13.47;67.09;99037.47;5020399;28;20049;-40
2022/06/25 04:19:57;;;;;;;4.57;2.55;;;;;;;13.49;66.48;99046.13;5023146;28;20072;-41
2022/06/25 04:22:23;;;;;;;3.45;2.05;;;;;;;13.47;66.35;99040.94;5019310;28;20045;-42
2022/06/25 04:24:50;;;;;;;5.28;2.63;;;;;;;13.46;67.25;99049.66;5019014;28;20474;-43
2022/06/25 04:30:04;;;;;;;2.05;1.42;;;;;;;13.43;66.69;99043.66;5019751;28;20052;-45
2022/06/25 04:32:30;;;;;;;4.75;1.48;;;;;;;13.43;67.11;99047.13;5021968;28;20399;-42
2022/06/25 04:34:57;;;;;;;3.72;2.20;;;;;;;13.43;67.10;99051.47;5018824;28;20115;-41
2022/06/25 04:37:24;;;;;;;2.38;2.17;;;;;;;13.44;67.25;99054.03;5020658;28;20083;-43
2022/06/25 04:39:50;;;;;;;3.67;2.85;;;;;;;13.46;67.07;99056.59;5022408;28;20095;-45
2022/06/25 04:42:17;;;;;;;5.93;2.30;;;;;;;13.50;66.13;99066.03;5025827;28;20049;-42
2022/06/25 04:44:43;;;;;;;8.88;2.72;;;;;;;13.49;66.13;99066.94;5023758;28;20080;-43
2022/06/25 04:47:10;;;;;;;5.07;2.20;;;;;;;13.52;66.61;99065.97;5022201;28;20053;-43
2022/06/25 04:49:37;;;;;;;3.35;1.20;;;;;;;13.53;66.74;99065.94;5024067;28;21444;-43
2022/06/25 04:52:04;;;;;;;4.82;2.78;;;;;;;13.59;67.79;99078.78;5023311;28;20144;-47
2022/06/25 04:54:30;;;;;;;6.82;2.53;;;;;;;13.69;66.91;99083.69;5025119;28;20053;-46
2022/06/25 04:56:57;;;;;;;5.90;3.42;;;;;;;13.77;67.47;99081.69;5024780;28;20045;-43
2022/06/25 04:59:24;;;;;;;5.82;1.10;;;;;;;13.87;67.33;99083.09;5021197;28;20437;-47
2022/06/25 05:01:52;;;;;;;4.53;0.73;;;;;;;14.00;66.66;99088.78;5021453;28;20877;-41
2022/06/25 05:04:19;;;;;;;12.68;1.90;;;;;;;14.07;66.84;99099.81;5023643;28;20053;-43
2022/06/25 05:06:45;;;;;;;4.30;2.08;;;;;;;14.16;67.35;99092.63;5018171;28;20139;-41
2022/06/25 05:09:12;;;;;;;3.20;1.38;;;;;;;14.26;66.73;99101.84;5020634;28;20046;-44
2022/06/25 05:11:39;;;;;;;5.20;1.58;;;;;;;14.33;66.41;99100.72;5026269;28;20481;-41
2022/06/25 05:14:06;;;;;;;4.78;1.90;;;;;;;14.43;66.99;99101.28;5020785;28;20053;-42
2022/06/25 05:16:32;;;;;;;4.50;2.17;;;;;;;14.51;66.78;99107.06;5016787;28;20041;-42
2022/06/25 05:18:59;;;;;;;4.45;1.67;;;;;;;14.56;65.81;99106.88;5021409;28;20042;-42
2022/06/25 05:21:26;;;;;;;3.28;1.08;;;;;;;14.62;65.96;99106.69;5020729;28;20041;-44
2022/06/25 05:23:52;;;;;;;7.57;1.67;;;;;;;14.67;66.33;99108.28;5022096;28;20551;-43
2022/06/25 05:26:19;;;;;;;7.20;1.85;;;;;;;14.69;65.80;99112.53;5020637;28;20056;-44
2022/06/25 05:28:46;;;;;;;6.25;2.15;;;;;;;14.75;65.64;99106.25;5020451;28;20103;-42
2022/06/25 05:31:12;;;;;;;3.28;0.60;;;;;;;14.84;66.15;99116.41;5020258;28;20592;-43
2022/06/25 05:33:39;;;;;;;4.28;1.52;;;;;;;14.93;65.39;99114.38;5027300;28;20053;-44
2022/06/25 05:36:06;;;;;;;2.42;1.52;;;;;;;15.02;65.61;99121.84;5022744;28;20058;-45
2022/06/25 05:38:32;;;;;;;4.72;1.73;;;;;;;15.15;65.64;99125.72;5022696;28;21009;-46
2022/06/25 05:40:59;;;;;;;3.90;1.73;;;;;;;15.33;65.66;99132.94;5019908;28;20064;-43
2022/06/25 05:43:25;;;;;;;4.72;1.98;;;;;;;15.45;65.00;99121.16;5021696;28;20065;-43
2022/06/25 05:45:52;;;;;;;3.35;1.60;;;;;;;15.57;65.32;99131.13;5028792;28;20045;-42
2022/06/25 05:48:19;;;;;;;3.03;1.67;;;;;;;15.70;64.60;99144.56;5026607;28;20112;-42
2022/06/25 05:50:45;;;;;;;3.38;1.85;;;;;;;15.78;63.79;99133.84;5026161;28;20072;-43
2022/06/25 05:53:12;;;;;;;8.85;2.42;;;;;;;15.83;63.91;99142.34;5027673;28;20049;-46
2022/06/25 05:55:38;;;;;;;3.83;2.28;;;;;;;15.90;63.61;99143.81;5025366;28;20099;-43
2022/06/25 05:58:05;;;;;;;5.60;1.73;;;;;;;16.01;63.72;99145.19;5026195;28;20115;-42
2022/06/25 06:00:32;;;;;;;5.97;2.63;;;;;;;16.10;64.09;99150.03;5022286;28;20115;-43
2022/06/25 06:02:58;;;;;;;5.07;1.52;;;;;;;16.17;62.77;99151.47;5020303;28;20049;-42
2022/06/25 06:05:25;;;;;;;7.03;0.75;;;;;;;16.30;63.12;99143.13;5023670;28;20666;-43
2022/06/25 06:07:52;;;;;;;3.15;1.27;;;;;;;16.42;63.12;99155.69;5026625;28;20053;-43
2022/06/25 06:10:18;;;;;;;4.90;1.90;;;;;;;16.60;62.72;99155.84;5022514;28;20049;-44
2022/06/25 06:12:45;;;;;;;1.52;1.40;;;;;;;16.79;62.70;99157.69;5019151;28;20131;-42
2022/06/25 06:15:12;;;;;;;3.72;1.30;;;;;;;16.99;62.49;99158.59;5019163;28;20057;-43
2022/06/25 06:17:39;;;;;;;5.82;1.58;;;;;;;17.15;62.10;99164.00;5023429;28;20037;-45
2022/06/25 06:20:06;;;;;;;5.47;2.05;;;;;;;17.26;61.42;99166.16;5023169;28;20123;-44
2022/06/25 06:22:33;;;;;;;4.28;2.42;;;;;;;17.38;61.15;99165.59;5024940;28;20041;-44
2022/06/25 06:25:00;;;;;;;5.80;1.73;;;;;;;17.45;60.52;99172.25;5022707;28;20049;-44
2022/06/25 06:27:27;;;;;;;3.65;1.45;;;;;;;17.50;59.60;99166.81;5020815;28;20053;-47
2022/06/25 06:29:53;;;;;;;6.35;0.90;;;;;;;17.66;60.89;99180.03;5024284;28;20590;-46
2022/06/25 06:32:21;;;;;;;3.88;2.13;;;;;;;17.90;60.01;99192.91;5017952;28;20053;-44
2022/06/25 06:34:47;;;;;;;3.80;2.03;;;;;;;18.13;59.99;99179.69;5022086;28;20045;-46
2022/06/25 06:37:14;;;;;;;4.20;1.92;;;;;;;18.35;59.57;99192.59;5023225;28;20062;-45
2022/06/25 06:39:45;;;;;;;5.10;1.77;;;;;;;18.61;58.67;99193.09;5021898;28;20043;-45
2022/06/25 06:42:12;;;;;;;3.47;1.67;;;;;;;18.75;57.76;99195.84;5024413;28;20175;-44
2022/06/25 06:44:38;;;;;;;7.35;1.40;;;;;;;18.93;58.14;99195.84;5021334;28;20049;-44
2022/06/25 06:47:05;;;;;;;4.05;1.67;;;;;;;19.09;57.95;99201.19;5017280;28;20053;-45
2022/06/25 06:49:31;;;;;;;4.80;1.90;;;;;;;19.29;57.66;99204.53;5017138;28;20049;-49
2022/06/25 06:51:58;;;;;;;5.32;2.15;;;;;;;19.41;57.02;99200.41;5018697;28;20130;-47
2022/06/25 06:54:24;;;;;;;4.10;2.55;;;;;;;19.57;56.31;99197.81;5023482;28;20041;-44
2022/06/25 06:56:53;;;;;;;8.38;0.65;;;;;;;19.76;56.72;99208.16;5021524;28;20453;-45
2022/06/25 06:59:19;;;;;;;7.65;2.80;;;;;;;19.97;56.49;99194.78;5023163;28;20474;-43
2022/06/25 07:01:46;;;;;;;6.45;1.83;;;;;;;20.06;55.04;99203.13;5021868;28;20045;-46
2022/06/25 07:04:13;;;;;;;4.22;1.65;;;;;;;20.11;55.44;99204.56;5019961;28;20077;-45
2022/06/25 07:06:39;;;;;;;4.60;2.55;;;;;;;20.26;54.86;99215.97;5024748;28;20508;-46
2022/06/25 07:09:06;;;;;;;4.05;1.55;;;;;;;20.41;54.73;99206.34;5024857;28;20448;-48
2022/06/25 07:11:32;;;;;;;4.82;2.05;;;;;;;20.55;54.27;99204.72;5021206;28;20041;-46
2022/06/25 07:14:01;;;;;;;5.38;1.75;;;;;;;20.70;53.87;99218.75;5020415;28;20103;-46
2022/06/25 07:16:28;;;;;;;6.32;1.13;;;;;;;20.88;53.67;99216.00;5025075;28;20419;-46
2022/06/25 07:18:57;;;;;;;4.05;0.60;;;;;;;21.08;53.47;99221.88;5027366;28;20406;-46
2022/06/25 07:21:25;;;;;;;2.80;1.50;;;;;;;21.27;52.39;99221.59;5022112;28;20480;-45
2022/06/25 07:23:52;;;;;;;5.43;1.98;;;;;;;21.38;51.60;99223.59;5023469;28;20049;-46
2022/06/25 07:26:20;;;;;;;4.65;2.15;;;;;;;21.47;52.02;99220.41;5020721;28;20049;-45
2022/06/25 07:28:47;;;;;;;3.35;1.45;;;;;;;21.70;51.15;99239.19;5022545;28;20083;-45
2022/06/25 07:31:14;;;;;;;4.25;2.13;;;;;;;21.82;50.26;99220.00;5022218;28;20111;-49
2022/06/25 07:33:40;;;;;;;5.30;0.90;;;;;;;21.91;49.84;99223.00;5020326;28;20414;-47
2022/06/25 07:36:07;;;;;;;3.88;2.67;;;;;;;21.97;49.52;99220.00;5021875;28;20107;-47
2022/06/25 07:38:35;;;;;;;4.95;1.48;;;;;;;22.20;49.80;99225.56;5019304;28;20046;-45
2022/06/25 07:41:02;;;;;;;5.20;1.60;;;;;;;22.40;50.02;99220.78;5020239;28;20054;-49
2022/06/25 07:43:29;;;;;;;4.40;1.80;;;;;;;22.50;48.31;99227.16;5024157;28;20045;-46
2022/06/25 07:45:57;;;;;;;5.05;1.77;;;;;;;22.58;48.71;99227.53;5022705;28;20057;-44
2022/06/25 07:48:24;;;;;;;3.75;1.75;;;;;;;22.60;47.50;99228.25;5000858;28;20056;-47
2022/06/25 07:53:38;;;;;;;5.32;1.77;;;;;;;22.71;47.00;99235.47;5003856;28;20046;-46
2022/06/25 07:56:05;;;;;;;4.65;1.75;;;;;;;22.78;47.07;99228.00;5021840;28;20045;-44
2022/06/25 07:58:34;;;;;;;4.70;1.45;;;;;;;22.93;47.75;99228.75;5017585;28;20123;-45
2022/06/25 08:01:01;;;;;;;2.40;1.92;;;;;;;23.07;46.42;99235.72;5014628;28;20056;-45
2022/06/25 08:03:28;;;;;;;5.32;1.63;;;;;;;23.23;45.85;99245.22;5024169;28;20387;-44
2022/06/25 08:05:56;;;;;;;3.22;0.88;;;;;;;23.38;45.11;99232.81;5025115;28;20437;-47
2022/06/25 08:08:23;;;;;;;3.13;1.70;;;;;;;23.50;45.29;99236.38;5017791;28;20167;-46
2022/06/25 08:10:51;;;;;;;4.65;2.60;;;;;;;23.65;45.15;99236.25;5021584;28;20103;-47
2022/06/25 08:13:20;;;;;;;4.25;2.10;;;;;;;23.74;44.39;99232.94;5019586;28;20124;-46
2022/06/25 08:15:47;;;;;;;6.55;2.15;;;;;;;23.78;44.59;99234.44;5023559;28;20048;-45
2022/06/25 08:18:14;;;;;;;5.68;2.47;;;;;;;23.88;43.93;99230.16;5021716;28;20045;-45
2022/06/25 08:20:40;;;;;;;3.22;1.73;;;;;;;23.88;43.39;99230.16;5020533;28;20057;-46
2022/06/25 08:23:07;;;;;;;5.25;2.65;;;;;;;23.81;43.20;99230.72;5023063;28;20049;-47
2022/06/25 08:25:34;;;;;;;6.18;2.80;;;;;;;23.59;43.78;99241.03;5019004;28;20092;-46
2022/06/25 08:28:05;;;;;;;3.60;1.63;;;;;;;23.60;43.68;99245.34;5020178;28;20052;-48
2022/06/25 08:30:31;;;;;;;4.43;2.35;;;;;;;23.75;44.65;99239.94;5017157;28;20049;-46
2022/06/25 08:32:58;;;;;;;4.38;1.88;;;;;;;23.92;44.17;99240.53;5019054;28;20095;-46
2022/06/25 08:35:25;;;;;;;5.63;0.88;;;;;;;24.18;44.70;99245.78;5024028;28;20692;-45
2022/06/25 08:37:52;;;;;;;4.40;1.98;;;;;;;24.36;44.58;99241.78;5024705;28;20507;-49
2022/06/25 08:40:20;;;;;;;5.15;1.88;;;;;;;24.37;43.19;99246.13;5023214;28;20056;-45
2022/06/25 08:42:48;;;;;;;6.40;2.45;;;;;;;24.08;42.53;99254.31;5023621;28;20110;-44
2022/06/25 08:45:17;;;;;;;4.38;1.88;;;;;;;23.96;42.83;99247.28;5022143;28;20056;-46
2022/06/25 08:47:46;;;;;;;4.35;0.95;;;;;;;24.12;43.45;99253.19;5018469;28;20510;-46
2022/06/25 08:50:14;;;;;;;5.38;2.40;;;;;;;24.24;42.58;99250.59;5021467;28;20057;-47
2022/06/25 08:52:46;;;;;;;6.00;2.10;;;;;;;24.46;43.42;99249.03;5012640;28;20053;-45
2022/06/25 08:55:23;;;;;;;5.38;2.05;;;;;;;24.65;42.74;99248.50;5019750;28;20053;-47
2022/06/25 08:57:50;;;;;;;3.60;2.38;;;;;;;24.67;41.70;99240.44;5017599;28;20184;-46
2022/06/25 09:00:16;;;;;;;6.47;2.38;;;;;;;24.76;42.59;99250.34;5017700;28;20107;-44
2022/06/25 09:02:49;;;;;;;7.18;2.15;;;;;;;24.89;42.03;99251.13;5018781;28;20045;-44
2022/06/25 09:05:17;;;;;;;3.80;2.70;;;;;;;24.96;41.98;99248.03;5021452;28;20061;-45
2022/06/25 09:07:52;;;;;;;7.70;2.75;;;;;;;24.97;40.03;99236.47;5020588;28;20509;-44
2022/06/25 09:10:20;;;;;;;5.03;2.55;;;;;;;24.81;40.35;99242.91;5021578;28;20045;-45
2022/06/25 09:12:54;;;;;;;3.70;1.60;;;;;;;24.41;39.05;99248.53;5025620;28;20053;-43
2022/06/25 09:15:23;;;;;;;5.30;2.45;;;;;;;24.31;39.72;99251.84;5026424;28;20045;-43
2022/06/25 09:17:51;;;;;;;5.07;2.22;;;;;;;24.15;39.38;99257.44;5026559;28;20072;-44
2022/06/25 09:20:25;;;;;;;3.95;1.50;;;;;;;23.99;40.89;99255.84;5028174;28;20052;-43
2022/06/25 09:22:59;;;;;;;4.25;1.20;;;;;;;23.97;40.66;99256.91;5022700;28;20624;-43
2022/06/25 09:25:28;;;;;;;5.28;1.73;;;;;;;23.90;40.27;99263.56;5025852;28;20104;-43
2022/06/25 09:27:57;;;;;;;5.13;2.30;;;;;;;23.83;41.11;99253.44;5027143;28;20064;-46
2022/06/25 09:30:28;;;;;;;3.10;1.88;;;;;;;23.96;41.16;99248.13;5020110;28;20053;-45
2022/06/25 09:32:58;;;;;;;3.92;1.08;;;;;;;24.15;40.95;99246.00;5019186;28;20437;-43
2022/06/25 09:35:38;;;;;;;2.85;0.80;;;;;;;24.07;39.99;99255.28;5024435;28;20496;-45
2022/06/25 09:40:51;;;;;;;6.00;1.15;;;;;;;23.52;39.87;99260.91;5037654;27;20418;-44
2022/06/25 09:43:19;;;;;;;3.25;1.30;;;;;;;23.61;41.71;99254.97;4982069;28;20074;-43
2022/06/25 09:45:48;;;;;;;3.35;1.02;;;;;;;23.98;41.77;99240.09;5000023;28;20062;-43
2022/06/25 09:51:23;;;;;;;6.30;2.67;;;;;;;24.31;39.65;99235.97;5044783;28;20428;-42
2022/06/25 09:53:53;;;;;;;3.85;2.20;;;;;;;24.54;41.75;99236.06;5012808;28;20046;-42
2022/06/25 09:58:57;;;;;;;7.45;1.45;;;;;;;25.16;40.07;99244.69;5041415;27;21028;-42
2022/06/25 10:01:27;;;;;;;3.55;1.27;;;;;;;25.04;39.22;99243.00;5016841;28;20112;-46
2022/06/25 10:03:55;;;;;;;3.70;0.90;;;;;;;24.73;39.57;99245.28;5020708;28;20063;-43
2022/06/25 10:06:23;;;;;;;6.07;1.35;;;;;;;24.61;39.65;99242.59;5019457;28;20046;-44
2022/06/25 10:08:52;;;;;;;6.82;1.17;;;;;;;24.50;39.71;99234.59;5016760;28;20046;-44
2022/06/25 10:11:21;;;;;;;4.90;1.58;;;;;;;24.42;40.50;99239.63;5017667;28;20119;-43
2022/06/25 10:13:50;;;;;;;14.35;2.28;;;;;;;24.42;40.56;99245.78;5020082;28;20754;-43
2022/06/25 10:16:20;;;;;;;9.80;2.03;;;;;;;24.35;39.94;99233.97;5018476;28;22866;-44
2022/06/25 10:18:48;;;;;;;;;;;;;;;24.04;40.51;99237.00;5015223;28;20054;-44
2022/06/25 10:21:15;;;;;;;6.95;1.00;;;;;;;24.29;40.37;99237.91;5001972;28;19926;-43
2022/06/25 10:23:43;;;;;;;3.97;1.08;;;;;;;24.26;39.63;99232.81;5001075;28;20041;-46
2022/06/25 10:26:11;;;;;;;4.93;1.17;;;;;;;24.11;39.66;99245.31;4998864;28;20085;-47
2022/06/25 10:28:38;;;;;;;6.95;1.55;;;;;;;24.06;40.95;99248.31;4993804;28;20506;-44
2022/06/25 10:31:07;;;;;;;5.75;1.05;;;;;;;24.02;40.58;99244.22;5000827;28;20060;-47
2022/06/25 10:33:51;;;;;;;8.43;1.50;;;;;;;24.07;40.87;99246.50;5001337;28;20087;-45
2022/06/25 10:36:18;;;;;;;6.70;1.23;;;;;;;23.99;40.90;99241.78;4998821;28;20080;-44
2022/06/25 10:38:44;;;;;;;5.65;1.48;;;;;;;23.83;40.64;99229.66;4997622;28;20050;-42
2022/06/25 10:43:59;;;;;;;8.75;1.10;;;;;;;23.59;40.17;99233.09;5011633;28;20493;-44
2022/06/25 10:46:42;;;;;;;4.55;0.82;;;;;;;23.76;40.95;99236.34;5004811;28;20050;-44
2022/06/25 10:49:13;;;;;;;3.60;0.77;;;;;;;24.13;40.70;99233.72;5003509;28;20049;-44
2022/06/25 10:51:45;;;;;;;6.82;1.33;;;;;;;24.33;39.63;99223.47;5035510;28;20049;-43
2022/06/25 10:54:34;;;;;;;4.05;1.42;;;;;;;24.39;39.00;99215.06;5004225;28;20386;-44
2022/06/25 10:57:02;;;;;;;3.95;0.85;;;;;;;24.41;38.92;99220.25;5026869;28;20054;-45
2022/06/25 11:02:14;;;;;;;4.85;0.90;;;;;;;24.19;38.74;99216.56;5046457;27;20388;-46
2022/06/25 11:04:52;;;;;;;2.20;0.95;;;;;;;24.05;38.00;99229.91;5010882;28;20073;-45
2022/06/25 11:07:21;;;;;;;3.15;0.93;;;;;;;23.99;38.06;99210.03;5013457;28;20047;-48
2022/06/25 11:12:30;;;;;;;5.03;2.25;;;;;;;24.30;38.42;99197.25;5105828;27;20721;-45
2022/06/25 11:15:06;;;;;;;3.55;1.35;;;;;;;24.26;37.56;99201.06;5038990;28;20054;-43
2022/06/25 11:17:33;;;;;;;4.80;3.10;;;;;;;24.04;37.19;99205.25;5025785;28;20629;-44
2022/06/25 11:20:07;;;;;;;5.05;1.95;;;;;;;23.81;38.68;99201.66;5023017;28;20458;-45
2022/06/25 11:22:45;;;;;;;5.47;0.82;;;;;;;23.83;39.40;99205.88;5024637;28;20117;-47
2022/06/25 11:30:44;;;;;;;2.00;0.70;;;;;;;23.71;38.52;99212.03;5020774;28;20112;-47
2022/06/25 11:33:11;;;;;;;7.30;1.25;;;;;;;23.90;38.86;99214.19;5019695;28;20046;-45
2022/06/25 11:35:45;;;;;;;5.30;2.03;;;;;;;24.14;38.28;99210.75;5020536;28;20428;-44
2022/06/25 11:38:16;;;;;;;5.25;1.17;;;;;;;24.24;38.10;99218.84;5020905;28;20042;-46
2022/06/25 11:40:43;;;;;;;2.88;1.10;;;;;;;24.32;38.26;99208.53;5023731;28;20339;-48
2022/06/25 11:43:12;;;;;;;5.10;1.02;;;;;;;24.29;37.11;99203.50;5023072;28;20053;-45
2022/06/25 11:45:56;;;;;;;2.05;1.05;;;;;;;24.18;37.16;99206.09;5021635;28;20522;-44
2022/06/25 11:48:28;;;;;;;3.42;0.95;;;;;;;24.24;37.63;99202.97;5016027;28;20647;-44
2022/06/25 11:50:58;;;;;;;3.20;0.93;;;;;;;24.00;36.69;99217.00;5021509;28;20040;-47
2022/06/25 11:53:34;;;;;;;5.00;1.27;;;;;;;23.65;37.10;99223.03;5017306;28;20086;-45
2022/06/25 11:56:03;;;;;;;4.13;1.50;;;;;;;23.43;37.00;99219.25;5020081;28;20049;-48
2022/06/25 11:58:31;;;;;;;;;;;;;;;23.20;38.88;99219.06;5020454;28;20518;-45
2022/06/25 12:00:59;;;;;;;4.03;1.58;;;;;;;23.48;38.26;99223.25;5021906;28;19940;-47
2022/06/25 12:03:27;;;;;;;5.63;0.93;;;;;;;23.65;38.73;99212.47;5020188;28;20046;-44
2022/06/25 12:05:55;;;;;;;6.60;1.17;;;;;;;23.76;38.62;99220.47;5020357;28;20049;-44
2022/06/25 12:08:23;;;;;;;3.95;1.58;;;;;;;23.66;37.79;99224.72;5020410;28;20050;-46
2022/06/25 12:10:51;;;;;;;4.50;1.00;;;;;;;23.81;38.73;99217.50;5018901;28;20545;-46